createdAt,value
2022-11-24T00:00:53.336Z,6.00
2022-11-24T00:03:20.391Z,6.10
2022-11-24T00:05:47.224Z,6.00
2022-11-24T00:08:14.006Z,6.00
2022-11-24T00:10:40.724Z,6.10
2022-11-24T00:13:07.447Z,6.10
2022-11-24T00:15:34.183Z,6.10
2022-11-24T00:18:00.843Z,6.10
2022-11-24T00:20:27.645Z,6.10
2022-11-24T00:22:54.365Z,6.10
2022-11-24T00:25:21.088Z,6.20
2022-11-24T00:27:47.765Z,6.20
2022-11-24T00:30:14.547Z,6.20
2022-11-24T00:32:41.189Z,6.20
2022-11-24T00:35:08.958Z,6.20
2022-11-24T00:37:35.695Z,6.20
2022-11-24T00:40:02.632Z,6.20
2022-11-24T00:42:29.434Z,6.20
2022-11-24T00:44:56.090Z,6.20
2022-11-24T00:47:22.852Z,6.20
2022-11-24T00:49:49.587Z,6.10
2022-11-24T00:52:16.261Z,6.10
2022-11-24T00:54:42.933Z,6.10
2022-11-24T00:57:09.612Z,6.10
2022-11-24T00:59:36.260Z,6.20
2022-11-24T01:02:03.040Z,6.10
2022-11-24T01:04:29.749Z,6.10
2022-11-24T01:06:56.451Z,6.00
2022-11-24T01:09:23.226Z,6.00
2022-11-24T01:12:02.201Z,6.00
2022-11-24T01:14:29.994Z,5.90
2022-11-24T01:16:56.940Z,5.90
2022-11-24T01:19:24.067Z,5.90
2022-11-24T01:21:50.882Z,5.90
2022-11-24T01:24:17.690Z,5.90
2022-11-24T01:26:44.595Z,5.90
2022-11-24T01:29:12.123Z,5.90
2022-11-24T01:31:38.993Z,5.90
2022-11-24T01:34:05.794Z,5.90
2022-11-24T01:36:32.580Z,6.00
2022-11-24T01:38:59.233Z,6.00
2022-11-24T01:41:26.553Z,6.00
2022-11-24T01:43:55.197Z,6.00
2022-11-24T01:46:41.871Z,6.10
2022-11-24T01:49:08.517Z,6.00
2022-11-24T01:51:40.194Z,6.10
2022-11-24T01:54:14.578Z,6.10
2022-11-24T01:56:44.065Z,6.10
2022-11-24T01:59:13.706Z,6.10
2022-11-24T02:01:40.640Z,6.10
2022-11-24T02:04:12.807Z,6.10
2022-11-24T02:06:43.051Z,6.00
2022-11-24T02:09:37.201Z,6.00
2022-11-24T02:12:04.600Z,6.00
2022-11-24T02:14:31.418Z,6.00
2022-11-24T02:16:58.353Z,6.00
2022-11-24T02:19:37.317Z,6.00
2022-11-24T02:22:04.666Z,5.90
2022-11-24T02:24:49.140Z,5.80
2022-11-24T02:27:15.902Z,5.80
2022-11-24T02:29:43.287Z,5.70
2022-11-24T02:32:11.516Z,5.70
2022-11-24T02:34:38.353Z,5.70
2022-11-24T02:37:05.094Z,5.70
2022-11-24T02:39:31.768Z,5.70
2022-11-24T02:42:03.073Z,5.80
2022-11-24T02:44:34.247Z,5.80
2022-11-24T02:47:12.246Z,5.80
2022-11-24T02:49:39.403Z,5.80
2022-11-24T02:52:06.534Z,5.90
2022-11-24T02:54:33.605Z,5.90
2022-11-24T02:57:00.525Z,5.90
2022-11-24T02:59:27.194Z,5.90
2022-11-24T03:01:53.976Z,5.90
2022-11-24T03:04:20.726Z,5.90
2022-11-24T03:06:47.426Z,6.00
2022-11-24T03:09:14.662Z,6.00
2022-11-24T03:11:41.416Z,6.00
2022-11-24T03:14:08.529Z,6.00
2022-11-24T03:16:35.371Z,6.00
2022-11-24T03:19:02.354Z,6.00
2022-11-24T03:21:29.108Z,6.00
2022-11-24T03:23:56.214Z,6.00
2022-11-24T03:26:25.373Z,6.10
2022-11-24T03:28:56.143Z,6.10
2022-11-24T03:31:23.670Z,6.10
2022-11-24T03:33:50.501Z,6.10
2022-11-24T03:36:17.369Z,6.10
2022-11-24T03:38:44.491Z,6.20
2022-11-24T03:41:11.272Z,6.20
2022-11-24T03:43:43.204Z,6.20
2022-11-24T03:46:10.543Z,6.20
2022-11-24T03:48:37.248Z,6.20
2022-11-24T03:51:04.352Z,6.20
2022-11-24T03:53:33.561Z,6.20
2022-11-24T03:56:00.375Z,6.30
2022-11-24T03:58:27.027Z,6.30
2022-11-24T04:00:54.841Z,6.30
2022-11-24T04:03:21.914Z,6.30
2022-11-24T04:05:48.627Z,6.30
2022-11-24T04:08:16.592Z,6.30
2022-11-24T04:10:43.492Z,6.30
2022-11-24T04:13:18.009Z,6.30
2022-11-24T04:15:44.836Z,6.30
2022-11-24T04:18:12.631Z,6.30
2022-11-24T04:20:40.339Z,6.30
2022-11-24T04:23:07.473Z,6.30
2022-11-24T04:25:34.423Z,6.30
2022-11-24T04:28:01.301Z,6.20
2022-11-24T04:30:28.703Z,6.10
2022-11-24T04:32:56.947Z,6.20
2022-11-24T04:35:24.125Z,6.10
2022-11-24T04:37:50.900Z,6.00
2022-11-24T04:40:17.834Z,6.00
2022-11-24T04:42:51.723Z,6.00
2022-11-24T04:45:18.470Z,6.00
2022-11-24T04:47:45.190Z,5.90
2022-11-24T04:50:12.143Z,6.00
2022-11-24T04:52:38.875Z,5.90
2022-11-24T04:55:05.921Z,5.90
2022-11-24T04:57:32.578Z,5.90
2022-11-24T04:59:59.305Z,5.90
2022-11-24T05:02:25.967Z,5.90
2022-11-24T05:04:52.666Z,5.80
2022-11-24T05:07:19.773Z,5.80
2022-11-24T05:10:05.797Z,5.80
2022-11-24T05:12:32.572Z,5.80
2022-11-24T05:15:00.734Z,5.80
2022-11-24T05:17:32.735Z,5.90
2022-11-24T05:19:59.506Z,5.90
2022-11-24T05:22:28.167Z,6.00
2022-11-24T05:24:55.116Z,6.00
2022-11-24T05:27:21.893Z,6.10
2022-11-24T05:29:48.624Z,6.10
2022-11-24T05:32:15.647Z,6.20
2022-11-24T05:34:42.352Z,6.20
2022-11-24T05:37:09.033Z,6.20
2022-11-24T05:39:36.989Z,6.20
2022-11-24T05:42:25.841Z,6.30
2022-11-24T05:44:53.478Z,6.30
2022-11-24T05:47:20.772Z,6.40
2022-11-24T05:49:47.511Z,6.40
2022-11-24T05:52:14.527Z,6.40
2022-11-24T05:54:41.230Z,6.40
2022-11-24T05:57:08.108Z,6.40
2022-11-24T05:59:34.990Z,6.30
2022-11-24T06:02:01.896Z,6.40
2022-11-24T06:04:28.706Z,6.40
2022-11-24T06:06:55.364Z,6.30
2022-11-24T06:09:22.067Z,6.30
2022-11-24T06:11:49.063Z,6.30
2022-11-24T06:14:15.741Z,6.30
2022-11-24T06:16:42.449Z,6.30
2022-11-24T06:19:10.844Z,6.30
2022-11-24T06:21:37.581Z,6.30
2022-11-24T06:24:05.520Z,6.20
2022-11-24T06:26:32.234Z,6.20
2022-11-24T06:28:58.990Z,6.20
2022-11-24T06:31:26.070Z,6.10
2022-11-24T06:33:53.649Z,6.10
2022-11-24T06:36:20.515Z,6.10
2022-11-24T06:38:47.270Z,6.00
2022-11-24T06:41:15.440Z,6.10
2022-11-24T06:43:42.506Z,6.00
2022-11-24T06:46:09.492Z,6.00
2022-11-24T06:48:36.789Z,6.00
2022-11-24T06:51:06.113Z,5.90
2022-11-24T06:53:37.942Z,5.90
2022-11-24T06:56:15.745Z,5.90
2022-11-24T06:58:45.710Z,5.90
2022-11-24T07:01:16.826Z,5.90
2022-11-24T07:03:43.853Z,6.00
2022-11-24T07:06:10.717Z,6.00
2022-11-24T07:08:37.461Z,6.10
2022-11-24T07:11:09.038Z,6.10
2022-11-24T07:13:35.897Z,6.00
2022-11-24T07:16:12.968Z,6.10
2022-11-24T07:18:39.710Z,6.10
2022-11-24T07:21:06.555Z,6.20
2022-11-24T07:23:33.337Z,6.20
2022-11-24T07:26:06.870Z,6.30
2022-11-24T07:28:34.651Z,6.30
2022-11-24T07:31:16.002Z,6.40
2022-11-24T07:33:42.754Z,6.40
2022-11-24T07:36:09.716Z,6.60
2022-11-24T07:38:36.804Z,6.70
2022-11-24T07:41:06.367Z,6.80
2022-11-24T07:43:34.709Z,7.00
2022-11-24T07:46:02.148Z,7.10
2022-11-24T07:48:29.103Z,7.10
2022-11-24T07:50:58.676Z,7.20
2022-11-24T07:53:25.408Z,7.20
2022-11-24T07:56:02.852Z,7.20
2022-11-24T07:58:32.998Z,7.30
2022-11-24T08:01:00.738Z,7.30
2022-11-24T08:03:27.634Z,7.50
2022-11-24T08:08:46.104Z,7.80
2022-11-24T08:11:15.830Z,8.00
2022-11-24T08:13:43.234Z,8.00
2022-11-24T08:16:15.425Z,8.00
2022-11-24T08:18:42.638Z,8.00
2022-11-24T08:21:13.219Z,8.00
2022-11-24T08:23:41.290Z,8.00
2022-11-24T08:26:11.789Z,8.00
2022-11-24T08:28:38.516Z,8.00
2022-11-24T08:31:18.581Z,8.00
2022-11-24T08:33:45.803Z,8.00
2022-11-24T08:36:15.565Z,8.00
2022-11-24T08:38:42.541Z,8.00
2022-11-24T08:41:12.136Z,8.20
2022-11-24T08:43:39.459Z,8.20
2022-11-24T08:46:11.104Z,8.10
2022-11-24T08:48:37.908Z,8.20
2022-11-24T08:51:10.223Z,8.20
2022-11-24T08:53:36.943Z,8.30
2022-11-24T08:56:04.418Z,8.40
2022-11-24T08:58:31.873Z,8.40
2022-11-24T09:01:13.447Z,8.50
2022-11-24T09:03:48.207Z,8.60
2022-11-24T09:06:18.678Z,8.70
2022-11-24T09:08:45.345Z,8.70
2022-11-24T09:11:13.799Z,8.80
2022-11-24T09:13:40.878Z,8.80
2022-11-24T09:16:10.355Z,8.90
2022-11-24T09:18:37.565Z,8.80
2022-11-24T09:21:16.067Z,8.70
2022-11-24T09:23:43.976Z,8.80
2022-11-24T09:26:13.332Z,8.60
2022-11-24T09:28:40.861Z,8.60
2022-11-24T09:31:10.245Z,8.60
2022-11-24T09:33:37.789Z,8.50
2022-11-24T09:36:05.403Z,8.30
2022-11-24T09:38:32.940Z,8.20
2022-11-24T09:41:22.160Z,8.00
2022-11-24T09:44:26.491Z,8.00
2022-11-24T09:47:09.280Z,7.90
2022-11-24T09:49:51.470Z,7.90
2022-11-24T09:52:26.524Z,7.70
2022-11-24T09:55:02.433Z,7.60
2022-11-24T09:57:37.560Z,7.60
2022-11-24T10:00:12.179Z,7.50
2022-11-24T10:02:39.264Z,7.40
2022-11-24T10:05:06.803Z,7.30
2022-11-24T10:07:42.469Z,7.30
2022-11-24T10:10:24.185Z,7.30
2022-11-24T10:13:30.756Z,7.20
2022-11-24T10:16:38.795Z,7.20
2022-11-24T10:19:46.769Z,7.20
2022-11-24T10:22:35.275Z,7.20
2022-11-24T10:25:12.636Z,7.20
2022-11-24T10:27:56.355Z,7.10
2022-11-24T10:30:26.510Z,7.10
2022-11-24T10:33:11.044Z,7.10
2022-11-24T10:35:57.821Z,7.10
2022-11-24T10:38:47.421Z,7.10
2022-11-24T10:41:22.189Z,7.00
2022-11-24T10:43:49.269Z,7.10
2022-11-24T10:46:23.459Z,7.20
2022-11-24T10:49:00.738Z,7.20
2022-11-24T10:52:02.168Z,7.30
2022-11-24T10:54:29.245Z,7.40
2022-11-24T10:56:55.980Z,7.50
2022-11-24T10:59:34.718Z,7.50
2022-11-24T11:02:02.087Z,7.50
2022-11-24T11:04:31.994Z,7.50
2022-11-24T11:07:13.480Z,7.50
2022-11-24T11:09:40.233Z,7.60
2022-11-24T11:12:42.547Z,7.60
2022-11-24T11:15:33.769Z,7.70
2022-11-24T11:18:01.325Z,7.70
2022-11-24T11:20:29.835Z,7.70
2022-11-24T11:22:58.819Z,7.60
2022-11-24T11:25:34.172Z,7.50
2022-11-24T11:28:24.028Z,7.50
2022-11-24T11:34:04.805Z,7.50
2022-11-24T11:36:34.415Z,7.60
2022-11-24T11:39:02.642Z,7.50
2022-11-24T11:41:33.645Z,7.50
2022-11-24T11:44:17.218Z,7.50
2022-11-24T11:46:44.983Z,7.60
2022-11-24T11:49:13.380Z,7.70
2022-11-24T11:52:04.788Z,7.60
2022-11-24T11:55:09.144Z,7.70
2022-11-24T11:57:46.663Z,7.70
2022-11-24T12:00:18.081Z,7.90
2022-11-24T12:02:54.319Z,8.00
2022-11-24T12:05:41.721Z,8.10
2022-11-24T12:08:16.025Z,8.10
2022-11-24T12:11:14.385Z,8.20
2022-11-24T12:14:25.056Z,8.20
2022-11-24T12:17:17.481Z,8.30
2022-11-24T12:20:05.159Z,8.30
2022-11-24T12:22:46.781Z,8.30
2022-11-24T12:25:28.338Z,8.40
2022-11-24T12:28:20.029Z,8.60
2022-11-24T12:31:03.693Z,8.60
2022-11-24T12:34:01.336Z,8.40
2022-11-24T12:36:34.960Z,8.40
2022-11-24T12:39:06.873Z,8.30
2022-11-24T12:41:45.611Z,8.50
2022-11-24T12:44:55.352Z,8.50
2022-11-24T12:47:28.231Z,8.40
2022-11-24T12:50:01.740Z,8.30
2022-11-24T12:53:02.334Z,8.40
2022-11-24T12:55:32.159Z,8.40
2022-11-24T12:58:10.637Z,8.40
2022-11-24T13:00:59.628Z,8.40
2022-11-24T13:03:44.813Z,8.40
2022-11-24T13:06:27.709Z,8.40
2022-11-24T13:08:54.797Z,8.40
2022-11-24T13:11:21.470Z,8.30
2022-11-24T13:14:06.040Z,8.30
2022-11-24T13:16:37.150Z,8.20
2022-11-24T13:19:14.109Z,8.20
2022-11-24T13:21:40.765Z,8.10
2022-11-24T13:26:42.868Z,8.10
2022-11-24T13:29:31.413Z,8.10
2022-11-24T13:32:01.157Z,8.00
2022-11-24T13:34:40.109Z,8.10
2022-11-24T13:37:36.598Z,8.10
2022-11-24T13:40:12.199Z,8.00
2022-11-24T13:43:02.856Z,8.10
2022-11-24T13:45:41.988Z,8.10
2022-11-24T13:48:21.212Z,7.80
2022-11-24T13:50:51.381Z,7.50
2022-11-24T13:53:44.985Z,7.40
2022-11-24T13:56:17.453Z,7.30
2022-11-24T13:58:47.420Z,7.20
2022-11-24T14:01:20.267Z,7.20
2022-11-24T14:04:29.915Z,7.10
2022-11-24T14:07:08.685Z,7.10
2022-11-24T14:09:51.059Z,7.00
2022-11-24T14:12:22.961Z,7.00
2022-11-24T14:14:57.003Z,7.10
2022-11-24T14:17:27.702Z,7.20
2022-11-24T14:19:56.737Z,7.20
2022-11-24T14:22:26.779Z,7.30
2022-11-24T14:24:59.297Z,7.30
2022-11-24T14:27:35.920Z,7.30
2022-11-24T14:30:19.678Z,7.30
2022-11-24T14:33:01.843Z,7.30
2022-11-24T14:35:34.529Z,7.30
2022-11-24T14:38:06.142Z,7.30
2022-11-24T14:40:53.514Z,7.20
2022-11-24T14:43:22.499Z,7.20
2022-11-24T14:45:55.962Z,7.20
2022-11-24T14:48:31.626Z,7.20
2022-11-24T14:51:12.725Z,7.30
2022-11-24T14:53:44.936Z,7.40
2022-11-24T14:56:23.909Z,7.40
2022-11-24T14:58:51.342Z,7.40
2022-11-24T15:01:27.360Z,7.40
2022-11-24T15:04:46.244Z,7.40
2022-11-24T15:07:29.504Z,7.40
2022-11-24T15:10:01.809Z,7.40
2022-11-24T15:12:35.967Z,7.40
2022-11-24T15:15:07.180Z,7.40
2022-11-24T15:17:34.211Z,7.50
2022-11-24T15:20:11.729Z,7.50
2022-11-24T15:22:41.467Z,7.60
2022-11-24T15:25:26.795Z,7.50
2022-11-24T15:27:53.983Z,7.50
2022-11-24T15:30:20.674Z,7.50
2022-11-24T15:32:55.632Z,7.40
2022-11-24T15:35:25.072Z,7.50
2022-11-24T15:37:52.109Z,7.40
2022-11-24T15:40:19.072Z,7.30
2022-11-24T15:42:52.375Z,7.20
2022-11-24T15:45:20.483Z,7.20
2022-11-24T15:47:47.527Z,7.20
2022-11-24T15:50:15.019Z,7.10
2022-11-24T15:52:42.583Z,7.10
2022-11-24T15:55:22.352Z,7.00
2022-11-24T15:57:49.740Z,6.90
2022-11-24T16:00:21.903Z,6.90
2022-11-24T16:02:49.227Z,6.80
2022-11-24T16:05:17.310Z,6.80
2022-11-24T16:07:44.841Z,6.80
2022-11-24T16:10:30.409Z,6.70
2022-11-24T16:12:57.078Z,6.70
2022-11-24T16:15:23.919Z,6.70
2022-11-24T16:17:51.024Z,6.60
2022-11-24T16:20:17.771Z,6.60
2022-11-24T16:22:44.517Z,6.60
2022-11-24T16:25:11.976Z,6.50
2022-11-24T16:27:39.124Z,6.50
2022-11-24T16:30:06.979Z,6.50
2022-11-24T16:32:33.735Z,6.40
2022-11-24T16:35:00.653Z,6.40
2022-11-24T16:37:27.336Z,6.30
2022-11-24T16:39:54.061Z,6.20
2022-11-24T16:42:20.769Z,6.10
2022-11-24T16:44:49.476Z,6.10
2022-11-24T16:47:16.612Z,6.10
2022-11-24T16:49:43.372Z,6.00
2022-11-24T16:52:10.095Z,5.90
2022-11-24T16:54:37.057Z,5.80
2022-11-24T16:57:04.052Z,5.80
2022-11-24T16:59:30.738Z,5.70
2022-11-24T17:01:57.534Z,5.70
2022-11-24T17:04:24.302Z,5.60
2022-11-24T17:06:51.574Z,5.60
2022-11-24T17:09:18.906Z,5.60
2022-11-24T17:11:45.692Z,5.60
2022-11-24T17:14:12.765Z,5.50
2022-11-24T17:16:39.603Z,5.50
2022-11-24T17:19:06.413Z,5.50
2022-11-24T17:21:33.201Z,5.40
2022-11-24T17:24:02.946Z,5.40
2022-11-24T17:26:29.615Z,5.40
2022-11-24T17:28:56.462Z,5.30
2022-11-24T17:31:26.515Z,5.30
2022-11-24T17:33:55.814Z,5.30
2022-11-24T17:36:23.324Z,5.20
2022-11-24T17:38:50.282Z,5.20
2022-11-24T17:41:18.447Z,5.10
2022-11-24T17:43:50.195Z,5.10
2022-11-24T17:46:17.191Z,5.10
2022-11-24T17:48:43.990Z,5.10
2022-11-24T17:51:16.536Z,5.10
2022-11-24T17:53:45.555Z,5.10
2022-11-24T17:56:17.541Z,5.10
2022-11-24T17:58:44.617Z,5.00
2022-11-24T18:01:12.982Z,5.10
2022-11-24T18:03:40.839Z,5.10
2022-11-24T18:06:13.426Z,5.10
2022-11-24T18:08:42.711Z,5.10
2022-11-24T18:11:15.199Z,5.00
2022-11-24T18:13:58.485Z,5.00
2022-11-24T18:16:29.873Z,5.10
2022-11-24T18:19:14.073Z,5.10
2022-11-24T18:21:42.176Z,5.10
2022-11-24T18:24:10.915Z,5.10
2022-11-24T18:26:40.360Z,5.20
2022-11-24T18:29:07.801Z,5.20
2022-11-24T18:31:35.668Z,5.20
2022-11-24T18:34:04.392Z,5.30
2022-11-24T18:36:31.435Z,5.30
2022-11-24T18:39:01.615Z,5.30
2022-11-24T18:41:28.291Z,5.30
2022-11-24T18:43:54.990Z,5.30
2022-11-24T18:46:21.864Z,5.20
2022-11-24T18:48:48.618Z,5.20
2022-11-24T18:51:15.363Z,5.20
2022-11-24T18:53:43.930Z,5.20
2022-11-24T18:56:17.686Z,5.20
2022-11-24T18:58:44.781Z,5.20
2022-11-24T19:01:13.997Z,5.10
2022-11-24T19:03:49.399Z,5.10
2022-11-24T19:06:20.409Z,5.00
2022-11-24T19:08:47.120Z,5.00
2022-11-24T19:11:22.806Z,5.00
2022-11-24T19:13:50.164Z,4.90
2022-11-24T19:16:19.095Z,4.90
2022-11-24T19:18:50.429Z,4.80
2022-11-24T19:21:20.713Z,4.80
2022-11-24T19:23:47.423Z,4.70
2022-11-24T19:26:14.103Z,4.70
2022-11-24T19:28:40.772Z,4.60
2022-11-24T19:31:10.461Z,4.60
2022-11-24T19:33:37.376Z,4.60
2022-11-24T19:36:06.640Z,4.50
2022-11-24T19:38:34.398Z,4.40
2022-11-24T19:41:03.144Z,4.50
2022-11-24T19:43:31.152Z,4.40
2022-11-24T19:46:09.928Z,4.40
2022-11-24T19:48:39.508Z,4.30
2022-11-24T19:51:08.204Z,4.30
2022-11-24T19:53:35.816Z,4.30
2022-11-24T19:56:07.495Z,4.30
2022-11-24T19:58:35.102Z,4.30
2022-11-24T20:01:15.100Z,4.30
2022-11-24T20:03:43.657Z,4.30
2022-11-24T20:06:12.717Z,4.30
2022-11-24T20:08:40.696Z,4.20
2022-11-24T20:11:11.935Z,4.30
2022-11-24T20:13:40.532Z,4.20
2022-11-24T20:16:14.436Z,4.20
2022-11-24T20:18:46.194Z,4.10
2022-11-24T20:21:18.773Z,4.10
2022-11-24T20:23:53.518Z,4.10
2022-11-24T20:26:22.949Z,4.10
2022-11-24T20:28:50.878Z,4.00
2022-11-24T20:31:21.579Z,4.00
2022-11-24T20:33:48.335Z,3.90
2022-11-24T20:36:20.902Z,3.90
2022-11-24T20:38:48.961Z,3.80
2022-11-24T20:41:18.750Z,3.70
2022-11-24T20:43:46.761Z,3.60
2022-11-24T20:46:33.645Z,3.60
2022-11-24T20:49:01.049Z,3.60
2022-11-24T20:51:30.611Z,3.60
2022-11-24T20:54:01.167Z,3.50
2022-11-24T20:56:30.764Z,3.50
2022-11-24T20:58:57.928Z,3.50
2022-11-24T21:01:28.193Z,3.50
2022-11-24T21:04:00.165Z,3.50
2022-11-24T21:06:30.816Z,3.40
2022-11-24T21:09:03.453Z,3.40
2022-11-24T21:11:31.184Z,3.40
2022-11-24T21:13:58.097Z,3.50
2022-11-24T21:16:30.155Z,3.50
2022-11-24T21:18:59.113Z,3.40
2022-11-24T21:21:33.464Z,3.40
2022-11-24T21:24:05.589Z,3.40
2022-11-24T21:26:35.943Z,3.40
2022-11-24T21:29:03.626Z,3.40
2022-11-24T21:31:30.579Z,3.50
2022-11-24T21:33:57.283Z,3.40
2022-11-24T21:36:25.766Z,3.40
2022-11-24T21:38:57.731Z,3.40
2022-11-24T21:41:26.902Z,3.30
2022-11-24T21:43:55.957Z,3.40
2022-11-24T21:46:23.291Z,3.40
2022-11-24T21:48:50.891Z,3.30
2022-11-24T21:51:20.331Z,3.30
2022-11-24T21:53:47.953Z,3.30
2022-11-24T21:56:19.594Z,3.20
2022-11-24T21:58:46.225Z,3.20
2022-11-24T22:01:13.879Z,3.20
2022-11-24T22:03:40.606Z,3.10
2022-11-24T22:06:07.997Z,3.20
2022-11-24T22:08:35.166Z,3.20
2022-11-24T22:11:07.928Z,3.10
2022-11-24T22:13:34.696Z,3.10
2022-11-24T22:16:07.058Z,3.10
2022-11-24T22:18:39.092Z,3.00
2022-11-24T22:21:07.662Z,3.00
2022-11-24T22:23:35.680Z,2.90
2022-11-24T22:26:17.451Z,2.90
2022-11-24T22:28:45.273Z,3.00
2022-11-24T22:31:20.800Z,3.00
2022-11-24T22:33:48.668Z,3.00
2022-11-24T22:36:17.030Z,3.00
2022-11-24T22:38:44.028Z,3.00
2022-11-24T22:41:17.469Z,3.00
2022-11-24T22:43:45.634Z,3.00
2022-11-24T22:46:23.798Z,3.00
2022-11-24T22:48:54.253Z,3.00
2022-11-24T22:51:28.502Z,3.10
2022-11-24T22:53:57.284Z,3.10
2022-11-24T22:56:25.167Z,3.20
2022-11-24T22:58:51.910Z,3.20
2022-11-24T23:01:21.443Z,3.30
2022-11-24T23:03:49.007Z,3.30
2022-11-24T23:06:21.127Z,3.30
2022-11-24T23:08:49.062Z,3.30
2022-11-24T23:11:20.721Z,3.20
2022-11-24T23:13:47.800Z,3.20
2022-11-24T23:16:16.851Z,3.20
2022-11-24T23:18:44.605Z,3.10
2022-11-24T23:21:20.227Z,3.10
2022-11-24T23:23:47.991Z,3.10
2022-11-24T23:26:18.577Z,3.00
2022-11-24T23:28:45.345Z,3.00
2022-11-24T23:31:17.447Z,3.00
2022-11-24T23:33:44.434Z,2.90
2022-11-24T23:36:13.572Z,2.90
2022-11-24T23:38:41.409Z,2.90
2022-11-24T23:41:10.866Z,2.90
2022-11-24T23:43:39.020Z,2.80
2022-11-24T23:46:07.966Z,2.70
2022-11-24T23:48:35.186Z,2.70
2022-11-24T23:51:13.068Z,2.70
2022-11-24T23:53:40.667Z,2.70
2022-11-24T23:56:07.916Z,2.60
2022-11-24T23:58:34.693Z,2.60
